Terminal Aerodrome Forecast
Issued by NWS

Home | Current Version | Previous Version | Text Only | Print | Product List | Glossary On
Versions: 1 2 3 4 5 6 7 8 9 10 11 12 13 14 15 16 17 18 19 20
000
FTUS41 KBGM 292341
TAFELM
TAF
KELM 292341Z 3000/3024 17005KT P6SM BKN200
     FM300600 19005KT P6SM BKN080
     FM301300 20010KT P6SM SCT045 BKN080
     FM301800 23012G19KT 6SM -SHRA BKN080 PROB30 3018/3022 P6SM TS
      BKN050CB=

USA.gov is the U.S. government's official web portal to all federal, state and local government web resources and services.